sensor_id;sensor_type;location;lat;lon;timestamp;temperature;humidity
67976;DHT22;54757;50.890;20.670;2022-08-02T00:07:17;25;82
67976;DHT22;54757;50.890;20.670;2022-08-02T00:14:04;25;82
67976;DHT22;54757;50.890;20.670;2022-08-02T00:21:18;25;82
67976;DHT22;54757;50.890;20.670;2022-08-02T00:28:17;25;82
67976;DHT22;54757;50.890;20.670;2022-08-02T00:35:15;25;81
67976;DHT22;54757;50.890;20.670;2022-08-02T00:42:20;25;81
67976;DHT22;54757;50.890;20.670;2022-08-02T00:49:19;25;81
67976;DHT22;54757;50.890;20.670;2022-08-02T00:56:19;25;81
67976;DHT22;54757;50.890;20.670;2022-08-02T01:00:16;25;81
67976;DHT22;54757;50.890;20.670;2022-08-02T01:07:03;24;83
67976;DHT22;54757;50.890;20.670;2022-08-02T01:14:14;24;83
67976;DHT22;54757;50.890;20.670;2022-08-02T01:21:57;24;83
67976;DHT22;54757;50.890;20.670;2022-08-02T01:28:33;24;83
67976;DHT22;54757;50.890;20.670;2022-08-02T01:35:09;24;85
67976;DHT22;54757;50.890;20.670;2022-08-02T01:42:15;24;85
67976;DHT22;54757;50.890;20.670;2022-08-02T01:49:23;24;85
67976;DHT22;54757;50.890;20.670;2022-08-02T01:56:04;24;85
67976;DHT22;54757;50.890;20.670;2022-08-02T02:00:17;24;85
67976;DHT22;54757;50.890;20.670;2022-08-02T02:07:31;24;88
67976;DHT22;54757;50.890;20.670;2022-08-02T02:14:31;24;88
67976;DHT22;54757;50.890;20.670;2022-08-02T02:21:03;24;88
67976;DHT22;54757;50.890;20.670;2022-08-02T02:28:40;24;88
67976;DHT22;54757;50.890;20.670;2022-08-02T02:35:20;24;89
67976;DHT22;54757;50.890;20.670;2022-08-02T02:42:45;24;89
67976;DHT22;54757;50.890;20.670;2022-08-02T02:49:02;24;89
67976;DHT22;54757;50.890;20.670;2022-08-02T02:56:05;24;89
67976;DHT22;54757;50.890;20.670;2022-08-02T03:00:13;24;89
67976;DHT22;54757;50.890;20.670;2022-08-02T03:07:19;23;90
67976;DHT22;54757;50.890;20.670;2022-08-02T03:14:26;23;90
67976;DHT22;54757;50.890;20.670;2022-08-02T03:21:23;23;90
67976;DHT22;54757;50.890;20.670;2022-08-02T03:28:16;23;90
67976;DHT22;54757;50.890;20.670;2022-08-02T03:35:21;23;90
67976;DHT22;54757;50.890;20.670;2022-08-02T03:42:24;23;90
67976;DHT22;54757;50.890;20.670;2022-08-02T03:49:24;23;90
67976;DHT22;54757;50.890;20.670;2022-08-02T03:56:21;23;90
67976;DHT22;54757;50.890;20.670;2022-08-02T04:00:25;23;90
67976;DHT22;54757;50.890;20.670;2022-08-02T04:07:04;23;91
67976;DHT22;54757;50.890;20.670;2022-08-02T04:14:22;23;91
67976;DHT22;54757;50.890;20.670;2022-08-02T04:21:19;23;91
67976;DHT22;54757;50.890;20.670;2022-08-02T04:28:16;23;91
67976;DHT22;54757;50.890;20.670;2022-08-02T04:35:07;22;92
67976;DHT22;54757;50.890;20.670;2022-08-02T04:42:21;22;92
67976;DHT22;54757;50.890;20.670;2022-08-02T04:49:23;22;92
67976;DHT22;54757;50.890;20.670;2022-08-02T04:56:06;22;92
67976;DHT22;54757;50.890;20.670;2022-08-02T05:00:17;22;92
67976;DHT22;54757;50.890;20.670;2022-08-02T05:07:16;22;92
67976;DHT22;54757;50.890;20.670;2022-08-02T05:14:02;22;92
67976;DHT22;54757;50.890;20.670;2022-08-02T05:21:03;22;92
67976;DHT22;54757;50.890;20.670;2022-08-02T05:28:18;22;92
67976;DHT22;54757;50.890;20.670;2022-08-02T05:35:25;22.78;92
67976;DHT22;54757;50.890;20.670;2022-08-02T05:42:06;22.78;92
67976;DHT22;54757;50.890;20.670;2022-08-02T05:49:19;22.78;92
67976;DHT22;54757;50.890;20.670;2022-08-02T05:56:27;22.78;92
67976;DHT22;54757;50.890;20.670;2022-08-02T06:00:10;22.78;92
67976;DHT22;54757;50.890;20.670;2022-08-02T06:07:13;22.78;92
67976;DHT22;54757;50.890;20.670;2022-08-02T06:14:07;22.78;92
67976;DHT22;54757;50.890;20.670;2022-08-02T06:21:04;22.78;92
67976;DHT22;54757;50.890;20.670;2022-08-02T06:28:21;22.78;92
67976;DHT22;54757;50.890;20.670;2022-08-02T06:35:15;22.36;92
67976;DHT22;54757;50.890;20.670;2022-08-02T06:49:20;22.36;92
67976;DHT22;54757;50.890;20.670;2022-08-02T06:56:07;22.36;92
67976;DHT22;54757;50.890;20.670;2022-08-02T07:00:26;22.36;92
67976;DHT22;54757;50.890;20.670;2022-08-02T07:07:02;22.08;93
67976;DHT22;54757;50.890;20.670;2022-08-02T07:14:16;22.08;93
67976;DHT22;54757;50.890;20.670;2022-08-02T07:21:20;22.08;93
67976;DHT22;54757;50.890;20.670;2022-08-02T07:28:04;22.08;93
67976;DHT22;54757;50.890;20.670;2022-08-02T07:42:05;22;93
67976;DHT22;54757;50.890;20.670;2022-08-02T07:49:02;22;93
67976;DHT22;54757;50.890;20.670;2022-08-02T07:56:04;22;93
67976;DHT22;54757;50.890;20.670;2022-08-02T08:00:19;22;93
67976;DHT22;54757;50.890;20.670;2022-08-02T08:14:16;21;94
67976;DHT22;54757;50.890;20.670;2022-08-02T08:21:17;21;94
67976;DHT22;54757;50.890;20.670;2022-08-02T08:28:03;21;94
67976;DHT22;54757;50.890;20.670;2022-08-02T08:42:15;21;93
67976;DHT22;54757;50.890;20.670;2022-08-02T08:49:21;21;93
67976;DHT22;54757;50.890;20.670;2022-08-02T08:56:15;21;93
67976;DHT22;54757;50.890;20.670;2022-08-02T09:00:29;21;93
67976;DHT22;54757;50.890;20.670;2022-08-02T09:14:27;21;94
67976;DHT22;54757;50.890;20.670;2022-08-02T09:21:37;21;94
67976;DHT22;54757;50.890;20.670;2022-08-02T09:28:19;21;94
67976;DHT22;54757;50.890;20.670;2022-08-02T09:35:36;21;94
67976;DHT22;54757;50.890;20.670;2022-08-02T09:42:23;21;94
67976;DHT22;54757;50.890;20.670;2022-08-02T09:49:20;21;94
67976;DHT22;54757;50.890;20.670;2022-08-02T09:56:03;21;94
67976;DHT22;54757;50.890;20.670;2022-08-02T10:00:15;21;94
67976;DHT22;54757;50.890;20.670;2022-08-02T10:14:29;21;94
67976;DHT22;54757;50.890;20.670;2022-08-02T10:21:11;21;94
67976;DHT22;54757;50.890;20.670;2022-08-02T10:28:06;21;94
67976;DHT22;54757;50.890;20.670;2022-08-02T10:35:22;21;94
67976;DHT22;54757;50.890;20.670;2022-08-02T10:42:04;21;94
67976;DHT22;54757;50.890;20.670;2022-08-02T10:49:13;21;94
67976;DHT22;54757;50.890;20.670;2022-08-02T10:56:03;21;94
67976;DHT22;54757;50.890;20.670;2022-08-02T11:00:40;21;94
67976;DHT22;54757;50.890;20.670;2022-08-02T11:14:21;21;94
67976;DHT22;54757;50.890;20.670;2022-08-02T11:21:35;21;94
67976;DHT22;54757;50.890;20.670;2022-08-02T11:28:12;21;94
67976;DHT22;54757;50.890;20.670;2022-08-02T11:35:03;21;94
67976;DHT22;54757;50.890;20.670;2022-08-02T11:42:06;21;94
67976;DHT22;54757;50.890;20.670;2022-08-02T11:49:22;21;94
67976;DHT22;54757;50.890;20.670;2022-08-02T11:56:05;21;94
67976;DHT22;54757;50.890;20.670;2022-08-02T12:00:30;21;94
67976;DHT22;54757;50.890;20.670;2022-08-02T12:14:07;21;94
67976;DHT22;54757;50.890;20.670;2022-08-02T12:21:37;21;94
67976;DHT22;54757;50.890;20.670;2022-08-02T12:28:40;21;94
67976;DHT22;54757;50.890;20.670;2022-08-02T12:35:10;21;94
67976;DHT22;54757;50.890;20.670;2022-08-02T12:42:19;22;93
67976;DHT22;54757;50.890;20.670;2022-08-02T12:49:20;22;93
67976;DHT22;54757;50.890;20.670;2022-08-02T12:56:31;22;93
67976;DHT22;54757;50.890;20.670;2022-08-02T13:00:34;22;93
67976;DHT22;54757;50.890;20.670;2022-08-02T13:07:16;22;93
67976;DHT22;54757;50.890;20.670;2022-08-02T13:14:05;23;93
67976;DHT22;54757;50.890;20.670;2022-08-02T13:21:03;23;93
67976;DHT22;54757;50.890;20.670;2022-08-02T13:28:03;23;93
67976;DHT22;54757;50.890;20.670;2022-08-02T13:42:05;24;91
67976;DHT22;54757;50.890;20.670;2022-08-02T13:49:05;24;91
67976;DHT22;54757;50.890;20.670;2022-08-02T13:56:17;24;91
67976;DHT22;54757;50.890;20.670;2022-08-02T14:00:13;24;91
67976;DHT22;54757;50.890;20.670;2022-08-02T14:07:15;24;91
67976;DHT22;54757;50.890;20.670;2022-08-02T14:14:04;24;88
67976;DHT22;54757;50.890;20.670;2022-08-02T14:21:15;24;88
67976;DHT22;54757;50.890;20.670;2022-08-02T14:28:19;24;88
67976;DHT22;54757;50.890;20.670;2022-08-02T14:35:03;24;88
67976;DHT22;54757;50.890;20.670;2022-08-02T14:42:17;25;82
67976;DHT22;54757;50.890;20.670;2022-08-02T14:49:32;25;82
67976;DHT22;54757;50.890;20.670;2022-08-02T14:56:02;25;82
67976;DHT22;54757;50.890;20.670;2022-08-02T15:00:23;25;82
67976;DHT22;54757;50.890;20.670;2022-08-02T15:07:04;25;82
67976;DHT22;54757;50.890;20.670;2022-08-02T15:21:14;22;71
67976;DHT22;54757;50.890;20.670;2022-08-02T15:28:10;22;71
67976;DHT22;54757;50.890;20.670;2022-08-02T15:35:19;22;71
67976;DHT22;54757;50.890;20.670;2022-08-02T15:49:19;22;71
67976;DHT22;54757;50.890;20.670;2022-08-02T15:56:15;22;71
67976;DHT22;54757;50.890;20.670;2022-08-02T16:00:25;22;71
67976;DHT22;54757;50.890;20.670;2022-08-02T16:07:16;22;71
67976;DHT22;54757;50.890;20.670;2022-08-02T16:21:18;22;70
67976;DHT22;54757;50.890;20.670;2022-08-02T16:28:14;22;70
67976;DHT22;54757;50.890;20.670;2022-08-02T16:35:09;22;70
67976;DHT22;54757;50.890;20.670;2022-08-02T16:49:04;22;70
67976;DHT22;54757;50.890;20.670;2022-08-02T16:56:18;22;70
67976;DHT22;54757;50.890;20.670;2022-08-02T17:00:11;22;70
67976;DHT22;54757;50.890;20.670;2022-08-02T17:07:03;22;70
67976;DHT22;54757;50.890;20.670;2022-08-02T17:21:17;22;70
67976;DHT22;54757;50.890;20.670;2022-08-02T17:28:05;22;70
67976;DHT22;54757;50.890;20.670;2022-08-02T17:35:10;22;70
67976;DHT22;54757;50.890;20.670;2022-08-02T17:49:37;22;70
67976;DHT22;54757;50.890;20.670;2022-08-02T17:56:15;22;70
67976;DHT22;54757;50.890;20.670;2022-08-02T18:00:08;22;70
67976;DHT22;54757;50.890;20.670;2022-08-02T18:07:17;22;70
67976;DHT22;54757;50.890;20.670;2022-08-02T18:21:17;22;70
67976;DHT22;54757;50.890;20.670;2022-08-02T18:28:05;22;70
67976;DHT22;54757;50.890;20.670;2022-08-02T18:35:06;22;70
67976;DHT22;54757;50.890;20.670;2022-08-02T18:49:18;21;71
67976;DHT22;54757;50.890;20.670;2022-08-02T18:56:22;21;71
67976;DHT22;54757;50.890;20.670;2022-08-02T19:00:06;21;71
67976;DHT22;54757;50.890;20.670;2022-08-02T19:07:02;21;71
67976;DHT22;54757;50.890;20.670;2022-08-02T19:21:05;21;71
67976;DHT22;54757;50.890;20.670;2022-08-02T19:28:15;21;71
67976;DHT22;54757;50.890;20.670;2022-08-02T19:35:07;21;71
67976;DHT22;54757;50.890;20.670;2022-08-02T19:42:16;21;71
67976;DHT22;54757;50.890;20.670;2022-08-02T19:49:07;21;71
67976;DHT22;54757;50.890;20.670;2022-08-02T19:56:20;21;71
67976;DHT22;54757;50.890;20.670;2022-08-02T20:00:26;21;71
67976;DHT22;54757;50.890;20.670;2022-08-02T20:07:06;21;71
67976;DHT22;54757;50.890;20.670;2022-08-02T20:21:03;21;72
67976;DHT22;54757;50.890;20.670;2022-08-02T20:28:16;21;72
67976;DHT22;54757;50.890;20.670;2022-08-02T20:35:03;21;72
67976;DHT22;54757;50.890;20.670;2022-08-02T20:42:06;21;72
67976;DHT22;54757;50.890;20.670;2022-08-02T20:49:20;21;73
67976;DHT22;54757;50.890;20.670;2022-08-02T20:56:18;21;73
67976;DHT22;54757;50.890;20.670;2022-08-02T21:00:15;21;73
67976;DHT22;54757;50.890;20.670;2022-08-02T21:07:02;21;73
67976;DHT22;54757;50.890;20.670;2022-08-02T21:21:14;21;73
67976;DHT22;54757;50.890;20.670;2022-08-02T21:28:01;21;73
67976;DHT22;54757;50.890;20.670;2022-08-02T21:35:04;21;73
67976;DHT22;54757;50.890;20.670;2022-08-02T21:42:15;21;73
67976;DHT22;54757;50.890;20.670;2022-08-02T21:49:03;21;73
67976;DHT22;54757;50.890;20.670;2022-08-02T21:56:04;21;73
67976;DHT22;54757;50.890;20.670;2022-08-02T22:00:11;21;73
67976;DHT22;54757;50.890;20.670;2022-08-02T22:07:20;21;73
67976;DHT22;54757;50.890;20.670;2022-08-02T22:14:16;21;73
67976;DHT22;54757;50.890;20.670;2022-08-02T22:21:19;21;73
67976;DHT22;54757;50.890;20.670;2022-08-02T22:28:20;21;73
67976;DHT22;54757;50.890;20.670;2022-08-02T22:35:04;21;73
67976;DHT22;54757;50.890;20.670;2022-08-02T22:42:17;21;73
67976;DHT22;54757;50.890;20.670;2022-08-02T22:49:18;21;73
67976;DHT22;54757;50.890;20.670;2022-08-02T22:56:02;21;73
67976;DHT22;54757;50.890;20.670;2022-08-02T23:00:17;21;73
67976;DHT22;54757;50.890;20.670;2022-08-02T23:07:18;21;73
67976;DHT22;54757;50.890;20.670;2022-08-02T23:14:18;21;73
67976;DHT22;54757;50.890;20.670;2022-08-02T23:21:06;21;73
67976;DHT22;54757;50.890;20.670;2022-08-02T23:28:14;21;73
67976;DHT22;54757;50.890;20.670;2022-08-02T23:35:13;21;73
67976;DHT22;54757;50.890;20.670;2022-08-02T23:42:05;21;73
67976;DHT22;54757;50.890;20.670;2022-08-02T23:49:03;21;73
67976;DHT22;54757;50.890;20.670;2022-08-02T23:56:04;21;73
